Time;durP1;ratioP1;P1;durP2;ratioP2;P2;SDS_P1;SDS_P2;PMS_P1;PMS_P2;Temp;Humidity;BMP_temperature;BMP_pressure;BME280_temperature;BME280_humidity;BME280_pressure;Samples;Min_cycle;Max_cycle;Signal;HPM_P1;HPM_P2
2023/05/14 00:00:41;;;;;;;1999.90;999.90;;;11.50;99.90;;;;;;5109707;28;20420;-71
2023/05/14 00:03:08;;;;;;;1999.90;999.90;;;11.60;99.90;;;;;;5112950;28;20441;-73
2023/05/14 00:05:34;;;;;;;1999.90;999.90;;;11.70;99.90;;;;;;5112771;27;20408;-74
2023/05/14 00:08:02;;;;;;;1999.90;999.90;;;11.70;99.90;;;;;;5112778;28;20465;-70
2023/05/14 00:10:29;;;;;;;1999.90;999.90;;;11.80;99.90;;;;;;5112517;28;20412;-73
2023/05/14 00:12:55;;;;;;;1999.90;999.90;;;11.80;99.90;;;;;;5101381;28;20425;-73
2023/05/14 00:15:22;;;;;;;1999.90;999.90;;;11.80;99.90;;;;;;5110241;28;20428;-70
2023/05/14 00:17:49;;;;;;;1999.90;999.90;;;11.20;99.90;;;;;;5112432;28;20852;-74
2023/05/14 00:20:16;;;;;;;1999.90;999.90;;;11.20;99.90;;;;;;5112455;28;20805;-73
2023/05/14 00:22:42;;;;;;;1999.90;999.90;;;11.30;99.90;;;;;;5112462;28;20461;-70
2023/05/14 00:25:10;;;;;;;1999.90;999.90;;;11.30;99.90;;;;;;5110527;28;20428;-73
2023/05/14 00:27:37;;;;;;;1999.90;999.90;;;11.20;99.90;;;;;;5112449;28;20412;-73
2023/05/14 00:30:06;;;;;;;1999.90;999.90;;;11.10;99.90;;;;;;5112252;28;20405;-69
2023/05/14 00:32:33;;;;;;;1999.90;999.90;;;11.00;99.90;;;;;;5112192;28;20408;-73
2023/05/14 00:34:59;;;;;;;1999.90;999.90;;;11.00;99.90;;;;;;5112104;28;20951;-73
2023/05/14 00:37:26;;;;;;;1999.90;999.90;;;11.00;99.90;;;;;;5110541;28;20420;-71
2023/05/14 00:39:53;;;;;;;1999.90;999.90;;;11.10;99.90;;;;;;5111864;28;20462;-73
2023/05/14 00:42:21;;;;;;;1999.90;999.90;;;11.20;99.90;;;;;;5112290;28;20408;-73
2023/05/14 00:44:47;;;;;;;1999.90;999.90;;;11.30;99.90;;;;;;5112177;27;20503;-73
2023/05/14 00:47:14;;;;;;;1999.90;999.90;;;11.40;99.90;;;;;;5112157;27;20465;-73
2023/05/14 00:49:42;;;;;;;1999.90;999.90;;;11.30;99.90;;;;;;5110203;28;20424;-73
2023/05/14 00:52:08;;;;;;;1999.90;999.90;;;11.10;99.90;;;;;;5110094;27;20844;-71
2023/05/14 00:54:36;;;;;;;1999.90;999.90;;;11.00;99.90;;;;;;5111388;28;20425;-73
2023/05/14 00:57:04;;;;;;;1999.90;999.90;;;10.90;99.90;;;;;;5111939;28;20491;-73
2023/05/14 00:59:32;;;;;;;1999.90;999.90;;;10.70;99.90;;;;;;5111571;28;20408;-72
2023/05/14 01:01:59;;;;;;;1999.90;999.90;;;10.70;99.90;;;;;;5109316;28;20466;-73
2023/05/14 01:04:26;;;;;;;1999.90;999.90;;;10.60;99.90;;;;;;5109996;28;20481;-73
2023/05/14 01:07:03;;;;;;;1999.90;999.90;;;10.70;99.90;;;;;;5104041;28;20473;-73
2023/05/14 01:09:39;;;;;;;1999.90;999.90;;;10.70;99.90;;;;;;5103449;28;20483;-72
2023/05/14 01:12:11;;;;;;;1999.90;999.90;;;10.80;99.90;;;;;;5111408;28;20825;-72
2023/05/14 01:14:45;;;;;;;1999.90;999.90;;;10.90;99.90;;;;;;5109449;28;20785;-73
2023/05/14 01:17:12;;;;;;;1999.90;999.90;;;10.90;99.90;;;;;;5111226;28;20477;-73
2023/05/14 01:19:41;;;;;;;1999.90;999.90;;;10.90;99.90;;;;;;5111509;28;20416;-73
2023/05/14 01:22:09;;;;;;;1999.90;999.90;;;10.70;99.90;;;;;;5111381;28;20419;-72
2023/05/14 01:24:36;;;;;;;1999.90;999.90;;;10.50;99.90;;;;;;5111099;28;20871;-73
2023/05/14 01:27:10;;;;;;;1999.90;999.90;;;10.50;99.90;;;;;;5110159;28;20840;-73
2023/05/14 01:29:40;;;;;;;1999.90;999.90;;;10.60;99.90;;;;;;5090250;28;20887;-73
2023/05/14 01:32:08;;;;;;;1999.90;999.90;;;10.70;99.90;;;;;;5090918;28;20818;-72
2023/05/14 01:34:37;;;;;;;1999.90;999.90;;;10.70;99.90;;;;;;5090726;28;20414;-73
2023/05/14 01:37:04;;;;;;;1999.90;999.90;;;10.60;99.90;;;;;;5090852;28;20808;-73
2023/05/14 01:39:36;;;;;;;1999.90;999.90;;;10.60;99.90;;;;;;5110879;28;20416;-73
2023/05/14 01:42:04;;;;;;;1999.90;999.90;;;10.70;99.90;;;;;;5111330;28;20497;-71
2023/05/14 01:44:31;;;;;;;1999.90;999.90;;;10.60;99.90;;;;;;5111358;28;20412;-71
2023/05/14 01:46:57;;;;;;;1999.90;999.90;;;10.40;99.90;;;;;;5111679;28;20412;-71
2023/05/14 01:49:24;;;;;;;1999.90;999.90;;;10.30;99.90;;;;;;5110080;28;20524;-70
2023/05/14 01:51:51;;;;;;;1999.90;999.90;;;10.30;99.90;;;;;;5111327;28;20498;-72
2023/05/14 01:54:17;;;;;;;1999.90;999.90;;;10.20;99.90;;;;;;5111312;28;20419;-70
2023/05/14 01:56:45;;;;;;;1999.90;999.90;;;10.10;99.90;;;;;;5111359;28;20889;-70
2023/05/14 01:59:12;;;;;;;1999.90;999.90;;;10.00;99.90;;;;;;5111337;28;20469;-70
2023/05/14 02:01:38;;;;;;;1999.90;999.90;;;9.90;99.90;;;;;;5109003;28;20416;-71
2023/05/14 02:04:05;;;;;;;1999.90;999.90;;;9.80;99.90;;;;;;5110670;28;21015;-70
2023/05/14 02:06:32;;;;;;;1999.90;999.90;;;9.80;99.90;;;;;;5111361;28;20840;-70
2023/05/14 02:09:00;;;;;;;1999.90;999.90;;;9.90;99.90;;;;;;5111256;28;20889;-70
2023/05/14 02:11:26;;;;;;;1999.90;999.90;;;10.00;99.90;;;;;;5110752;28;20408;-73
2023/05/14 02:13:54;;;;;;;1999.90;999.90;;;10.10;99.90;;;;;;5108986;28;20831;-73
2023/05/14 02:16:21;;;;;;;1999.90;999.90;;;10.20;99.90;;;;;;5110364;28;20474;-73
2023/05/14 02:18:47;;;;;;;1999.90;999.90;;;9.80;99.90;;;;;;5110889;28;20408;-73
2023/05/14 02:21:14;;;;;;;1999.90;999.90;;;9.60;99.90;;;;;;5110671;28;20404;-73
2023/05/14 02:23:41;;;;;;;1999.90;999.90;;;9.60;99.90;;;;;;5110532;28;20955;-73
2023/05/14 02:26:09;;;;;;;1999.90;999.90;;;9.40;99.90;;;;;;5108683;28;20428;-73
2023/05/14 02:28:35;;;;;;;1999.90;999.90;;;9.20;99.90;;;;;;5110483;28;20452;-73
2023/05/14 02:31:03;;;;;;;1999.90;999.90;;;9.30;99.90;;;;;;5110401;28;20906;-73
2023/05/14 02:33:30;;;;;;;1999.90;999.90;;;9.40;99.90;;;;;;5110769;28;20438;-73
2023/05/14 02:35:57;;;;;;;1999.90;999.90;;;9.50;99.90;;;;;;5110500;28;20453;-73
2023/05/14 02:38:23;;;;;;;1999.90;999.90;;;9.50;99.90;;;;;;5108708;28;20436;-73
2023/05/14 02:40:50;;;;;;;1999.90;999.90;;;9.70;99.90;;;;;;5110451;28;20420;-73
2023/05/14 02:43:17;;;;;;;1999.90;999.90;;;9.70;99.90;;;;;;5114473;28;20820;-71
2023/05/14 02:45:43;;;;;;;1999.90;999.90;;;9.80;99.90;;;;;;5113866;28;20404;-73
2023/05/14 02:48:11;;;;;;;1999.90;999.90;;;9.70;99.90;;;;;;5113996;28;20856;-73
2023/05/14 02:50:38;;;;;;;1999.90;999.90;;;9.50;99.90;;;;;;5112304;28;20424;-73
2023/05/14 02:53:04;;;;;;;1999.90;999.90;;;9.40;99.90;;;;;;5113822;28;20416;-74
2023/05/14 02:55:31;;;;;;;1999.90;999.90;;;9.40;99.90;;;;;;5113975;28;20490;-72
2023/05/14 02:57:58;;;;;;;1999.90;999.90;;;9.50;99.90;;;;;;5113853;28;20407;-73
2023/05/14 03:00:24;;;;;;;1999.90;999.90;;;9.50;99.90;;;;;;5113781;28;20943;-73
2023/05/14 03:02:51;;;;;;;1999.90;999.90;;;9.50;99.90;;;;;;5111891;28;20427;-73
2023/05/14 03:05:19;;;;;;;1999.90;999.90;;;9.60;99.90;;;;;;5113479;28;20408;-73
2023/05/14 03:07:46;;;;;;;1999.90;999.90;;;9.60;99.90;;;;;;5113646;28;20431;-73
2023/05/14 03:10:12;;;;;;;1999.90;999.90;;;9.60;99.90;;;;;;5113509;28;20943;-73
2023/05/14 03:12:39;;;;;;;1999.90;999.90;;;9.50;99.90;;;;;;5113892;28;20457;-73
2023/05/14 03:15:07;;;;;;;1999.90;999.90;;;9.50;99.90;;;;;;5111929;28;20423;-74
2023/05/14 03:17:34;;;;;;;1999.90;999.90;;;9.60;99.90;;;;;;5113422;28;20926;-73
2023/05/14 03:20:00;;;;;;;1999.90;999.90;;;9.60;99.90;;;;;;5113338;28;20412;-73
2023/05/14 03:22:29;;;;;;;1999.90;999.90;;;9.70;99.90;;;;;;5113592;28;20444;-73
2023/05/14 03:24:55;;;;;;;1999.90;999.90;;;9.60;99.90;;;;;;5113428;28;20443;-73
2023/05/14 03:27:22;;;;;;;1999.90;999.90;;;9.50;99.90;;;;;;5111775;28;20431;-73
2023/05/14 03:29:49;;;;;;;1999.90;999.90;;;9.40;99.90;;;;;;5113131;28;20416;-73
2023/05/14 03:32:15;;;;;;;1999.90;999.90;;;9.60;99.90;;;;;;5113284;28;20412;-73
2023/05/14 03:34:43;;;;;;;1999.90;999.90;;;9.60;99.90;;;;;;5112921;28;20420;-73
2023/05/14 03:37:10;;;;;;;1999.90;999.90;;;9.40;99.90;;;;;;5112432;28;20431;-73
2023/05/14 03:39:38;;;;;;;1999.90;999.90;;;9.20;99.90;;;;;;5112602;28;20921;-73
2023/05/14 03:42:05;;;;;;;1999.90;999.90;;;9.20;99.90;;;;;;5113030;28;20476;-73
2023/05/14 03:44:32;;;;;;;1999.90;999.90;;;9.40;99.90;;;;;;5113083;28;20891;-73
2023/05/14 03:46:58;;;;;;;1999.90;999.90;;;9.30;99.90;;;;;;5113261;28;20794;-73
2023/05/14 03:49:25;;;;;;;1999.90;999.90;;;9.40;99.90;;;;;;5111923;28;20408;-73
2023/05/14 03:51:51;;;;;;;1999.90;999.90;;;9.30;99.90;;;;;;5111697;28;20408;-73
2023/05/14 03:54:18;;;;;;;1999.90;999.90;;;9.40;99.90;;;;;;5112863;28;20416;-73
2023/05/14 03:56:46;;;;;;;1999.90;999.90;;;9.50;99.90;;;;;;5113120;28;20470;-73
2023/05/14 03:59:13;;;;;;;1999.90;999.90;;;9.60;99.90;;;;;;5112648;28;20881;-73
2023/05/14 04:01:39;;;;;;;1999.90;999.90;;;9.70;99.90;;;;;;5110870;28;20437;-72
2023/05/14 04:04:06;;;;;;;1999.90;999.90;;;9.80;99.90;;;;;;5112710;28;20465;-71
2023/05/14 04:06:33;;;;;;;1999.90;999.90;;;9.90;99.90;;;;;;5112789;28;20958;-73
2023/05/14 04:09:00;;;;;;;1999.90;999.90;;;10.10;99.90;;;;;;5112597;28;20929;-73
2023/05/14 04:11:26;;;;;;;1999.90;999.90;;;10.30;99.90;;;;;;5112645;28;20959;-73
2023/05/14 04:13:55;;;;;;;1999.90;999.90;;;10.30;99.90;;;;;;5110970;28;20485;-73
2023/05/14 04:16:21;;;;;;;1999.90;999.90;;;10.40;99.90;;;;;;5112223;28;20408;-73
2023/05/14 04:18:48;;;;;;;1999.90;999.90;;;10.40;99.90;;;;;;5112694;28;20404;-73
2023/05/14 04:21:15;;;;;;;1999.90;999.90;;;10.50;99.90;;;;;;5112673;28;20412;-73
2023/05/14 04:23:41;;;;;;;1999.90;999.90;;;10.40;99.90;;;;;;5112518;28;20959;-73
2023/05/14 04:26:08;;;;;;;1999.90;999.90;;;10.40;99.90;;;;;;5110655;28;20404;-73
2023/05/14 04:28:34;;;;;;;1999.90;999.90;;;10.30;99.90;;;;;;5112126;28;20468;-72
2023/05/14 04:31:03;;;;;;;1999.90;999.90;;;10.30;99.90;;;;;;5112140;28;20450;-73
2023/05/14 04:33:30;;;;;;;1999.90;999.90;;;10.30;99.90;;;;;;5112473;28;20404;-71
2023/05/14 04:35:56;;;;;;;1999.90;999.90;;;10.60;99.90;;;;;;5110435;28;20478;-73
2023/05/14 04:38:23;;;;;;;1999.90;999.90;;;10.70;99.90;;;;;;5112105;28;20479;-73
2023/05/14 04:40:50;;;;;;;1999.90;999.90;;;10.90;99.90;;;;;;5112263;28;20465;-72
2023/05/14 04:43:16;;;;;;;1999.90;999.90;;;11.10;99.90;;;;;;5112003;28;20886;-73
2023/05/14 04:45:43;;;;;;;1999.90;999.90;;;11.10;99.90;;;;;;5110158;28;20477;-74
2023/05/14 04:48:11;;;;;;;1999.90;999.90;;;11.20;99.90;;;;;;5108553;28;20827;-73
2023/05/14 04:50:38;;;;;;;1999.90;999.90;;;11.20;99.90;;;;;;5110496;28;20476;-73
2023/05/14 04:53:04;;;;;;;1999.90;999.90;;;11.20;99.90;;;;;;5111831;28;20408;-73
2023/05/14 04:55:32;;;;;;;1999.90;999.90;;;11.10;99.90;;;;;;5111717;28;20420;-73
2023/05/14 04:57:58;;;;;;;1999.90;999.90;;;11.00;99.90;;;;;;5109905;28;20438;-73
2023/05/14 05:00:25;;;;;;;1999.90;999.90;;;11.20;99.90;;;;;;5111428;28;20886;-73
2023/05/14 05:02:52;;;;;;;1999.90;999.90;;;11.20;99.90;;;;;;5111948;28;20461;-72
2023/05/14 05:05:20;;;;;;;1999.90;999.90;;;11.50;99.90;;;;;;5111009;28;20408;-72
2023/05/14 05:07:47;;;;;;;1999.90;999.90;;;11.60;99.90;;;;;;5111560;28;20874;-73
2023/05/14 05:10:14;;;;;;;1999.90;999.90;;;11.40;99.90;;;;;;5109435;28;20428;-73
2023/05/14 05:12:41;;;;;;;1999.90;999.90;;;11.50;99.90;;;;;;5111256;28;20417;-73
2023/05/14 05:15:09;;;;;;;1999.90;999.90;;;11.70;99.90;;;;;;5111534;28;20423;-73
2023/05/14 05:17:36;;;;;;;1999.90;999.90;;;11.70;99.90;;;;;;5111643;28;20430;-73
2023/05/14 05:20:03;;;;;;;1999.90;999.90;;;11.80;99.90;;;;;;5111429;28;20408;-73
2023/05/14 05:22:31;;;;;;;1999.90;999.90;;;12.10;99.90;;;;;;5105748;28;20517;-73
2023/05/14 05:24:58;;;;;;;1999.90;999.90;;;12.20;99.90;;;;;;5111011;28;20412;-73
2023/05/14 05:27:25;;;;;;;1999.90;999.90;;;12.60;99.90;;;;;;5111661;28;20426;-73
2023/05/14 05:29:51;;;;;;;1999.90;999.90;;;12.70;99.90;;;;;;5111324;28;20408;-73
2023/05/14 05:32:18;;;;;;;1999.90;999.90;;;13.00;99.90;;;;;;5109010;28;20462;-73
2023/05/14 05:34:45;;;;;;;1999.90;999.90;;;13.00;99.90;;;;;;5094750;28;20457;-73
2023/05/14 05:37:13;;;;;;;1999.90;999.90;;;13.00;99.90;;;;;;5102130;28;20478;-73
2023/05/14 05:39:41;;;;;;;1999.90;999.90;;;13.30;99.90;;;;;;5106822;28;20940;-73
2023/05/14 05:42:08;;;;;;;1999.90;999.90;;;13.30;99.90;;;;;;5110842;28;20778;-71
2023/05/14 05:44:34;;;;;;;1999.90;999.90;;;13.30;99.90;;;;;;5110997;28;20412;-72
2023/05/14 05:47:01;;;;;;;1999.90;999.90;;;13.30;99.90;;;;;;5111086;28;20416;-73
2023/05/14 05:49:28;;;;;;;1999.90;999.90;;;13.30;99.90;;;;;;5108496;28;20427;-72
2023/05/14 05:51:54;;;;;;;1999.90;999.90;;;13.40;99.90;;;;;;5110706;28;20408;-73
2023/05/14 05:54:22;;;;;;;1999.90;999.90;;;13.50;99.90;;;;;;5110560;28;20411;-73
2023/05/14 05:56:50;;;;;;;1999.90;999.90;;;13.40;99.90;;;;;;5110980;28;20408;-73
2023/05/14 05:59:17;;;;;;;1999.90;999.90;;;13.60;99.90;;;;;;5108949;28;20489;-72
2023/05/14 06:01:44;;;;;;;1999.90;999.90;;;13.60;99.90;;;;;;5110715;28;20481;-73
2023/05/14 06:04:10;;;;;;;1999.90;999.90;;;13.60;99.90;;;;;;5110650;28;20426;-71
2023/05/14 06:06:37;;;;;;;1999.90;999.90;;;13.80;99.90;;;;;;5110768;28;20404;-73
2023/05/14 06:09:05;;;;;;;1999.90;999.90;;;13.90;99.90;;;;;;5108498;28;20427;-73
2023/05/14 06:11:32;;;;;;;1999.90;999.90;;;14.20;99.90;;;;;;5110632;28;20505;-71
2023/05/14 06:14:00;;;;;;;1999.90;999.90;;;14.30;99.90;;;;;;5110862;28;20412;-73
2023/05/14 06:16:27;;;;;;;1999.90;999.90;;;14.30;99.90;;;;;;5113418;28;20427;-73
2023/05/14 06:18:54;;;;;;;1999.90;999.90;;;14.40;99.90;;;;;;5111702;27;20503;-73
2023/05/14 06:21:21;;;;;;;1999.90;999.90;;;14.40;99.90;;;;;;5114434;28;20452;-73
2023/05/14 06:23:48;;;;;;;1999.90;999.90;;;14.60;99.90;;;;;;5115032;28;20403;-73
2023/05/14 06:26:14;;;;;;;1999.90;999.90;;;14.80;99.90;;;;;;5114557;28;20899;-74
2023/05/14 06:28:41;;;;;;;1999.90;999.90;;;14.80;99.90;;;;;;5113295;28;20423;-73
2023/05/14 06:31:09;;;;;;;1999.90;999.90;;;14.90;99.90;;;;;;5114521;28;20456;-74
2023/05/14 06:33:35;;;;;;;1999.90;999.90;;;14.80;99.90;;;;;;5114692;28;20553;-73
2023/05/14 06:36:04;;;;;;;1999.90;999.90;;;14.70;99.90;;;;;;5114175;28;20828;-73
2023/05/14 06:38:31;;;;;;;1999.90;999.90;;;14.70;99.90;;;;;;5112596;28;20983;-73
2023/05/14 06:40:58;;;;;;;1999.90;999.90;;;14.60;99.90;;;;;;5112879;28;20436;-72
2023/05/14 06:43:25;;;;;;;1999.90;999.90;;;15.00;99.90;;;;;;5114265;28;20824;-73
2023/05/14 06:45:51;;;;;;;1999.90;999.90;;;15.20;99.90;;;;;;5114311;27;20899;-73
2023/05/14 06:48:20;;;;;;;1999.90;999.90;;;15.20;99.90;;;;;;5112551;28;20504;-72
2023/05/14 06:50:47;;;;;;;1999.90;999.90;;;15.50;99.90;;;;;;5113986;28;20950;-72
2023/05/14 06:53:14;;;;;;;1999.90;999.90;;;15.60;99.90;;;;;;5107236;28;20820;-71
2023/05/14 06:55:40;;;;;;;1999.90;999.90;;;15.70;99.90;;;;;;5114826;28;20511;-71
2023/05/14 06:58:07;;;;;;;1999.90;999.90;;;15.80;99.90;;;;;;5114753;28;20413;-71
2023/05/14 07:00:34;;;;;;;1999.90;999.90;;;16.00;99.90;;;;;;5115161;28;20411;-71
2023/05/14 07:03:01;;;;;;;1999.90;999.90;;;16.10;99.90;;;;;;5112673;28;20779;-69
2023/05/14 07:05:29;;;;;;;1999.90;999.90;;;16.20;99.90;;;;;;5115061;27;20472;-71
2023/05/14 07:07:55;;;;;;;1999.90;999.90;;;16.20;99.90;;;;;;5114844;28;20465;-70
2023/05/14 07:10:22;;;;;;;1999.90;999.90;;;16.40;99.90;;;;;;5114668;28;20473;-71
2023/05/14 07:12:49;;;;;;;1999.90;999.90;;;16.30;99.90;;;;;;5112876;28;20424;-71
2023/05/14 07:15:16;;;;;;;1999.90;999.90;;;16.50;99.90;;;;;;5114334;28;20424;-69
2023/05/14 07:17:42;;;;;;;1999.90;999.90;;;16.70;99.90;;;;;;5114498;28;20454;-71
2023/05/14 07:20:10;;;;;;;1999.90;999.90;;;17.10;99.90;;;;;;5114818;28;20412;-69
2023/05/14 07:22:38;;;;;;;1999.90;999.90;;;16.90;99.90;;;;;;5112863;28;20432;-71
2023/05/14 07:25:06;;;;;;;1999.90;999.90;;;17.10;99.90;;;;;;5114066;28;20412;-70
2023/05/14 07:27:32;;;;;;;1999.90;999.90;;;17.40;99.90;;;;;;5113601;28;20404;-70
2023/05/14 07:29:59;;;;;;;1999.90;999.90;;;17.70;99.90;;;;;;5114156;28;20415;-71
2023/05/14 07:32:26;;;;;;;1999.90;999.90;;;18.10;99.90;;;;;;5112249;28;20424;-71
2023/05/14 07:34:52;;;;;;;1999.90;999.90;;;18.30;99.90;;;;;;5114127;28;20404;-71
2023/05/14 07:37:21;;;;;;;1999.90;999.90;;;18.50;99.90;;;;;;5113527;28;20408;-72
2023/05/14 07:39:49;;;;;;;1999.90;999.90;;;18.80;99.90;;;;;;5113287;28;20408;-74
2023/05/14 07:42:16;;;;;;;1999.90;999.90;;;19.00;99.90;;;;;;5111485;28;20978;-74
2023/05/14 07:44:42;;;;;;;1999.90;999.90;;;18.80;99.90;;;;;;5112942;28;20415;-74
2023/05/14 07:47:09;;;;;;;1999.90;999.90;;;18.50;99.90;;;;;;5113909;28;20441;-71
2023/05/14 07:49:36;;;;;;;1999.90;999.90;;;18.60;99.90;;;;;;5113689;28;20416;-71
2023/05/14 07:52:03;;;;;;;1999.90;999.90;;;18.80;99.90;;;;;;5112215;28;20428;-71
2023/05/14 07:54:29;;;;;;;1999.90;999.90;;;19.00;99.90;;;;;;5105154;28;20420;-70
2023/05/14 07:56:57;;;;;;;1999.90;999.90;;;18.80;99.90;;;;;;5113732;28;20424;-70
2023/05/14 07:59:24;;;;;;;1999.90;999.90;;;18.90;99.90;;;;;;5113416;28;20420;-71
2023/05/14 08:01:51;;;;;;;1999.90;999.90;;;19.10;99.90;;;;;;5111767;28;20436;-68
2023/05/14 08:04:18;;;;;;;1999.90;999.90;;;19.40;99.90;;;;;;5111675;28;20909;-73
2023/05/14 08:06:44;;;;;;;1999.90;999.90;;;19.40;99.90;;;;;;5113253;28;20893;-71
2023/05/14 08:09:11;;;;;;;1999.90;999.90;;;19.50;99.90;;;;;;5113103;28;20453;-72
2023/05/14 08:11:38;;;;;;;1999.90;999.90;;;19.80;99.90;;;;;;5112574;28;20461;-71
2023/05/14 08:14:06;;;;;;;1999.90;999.90;;;19.70;99.90;;;;;;5111518;28;20420;-69
2023/05/14 08:16:32;;;;;;;1999.90;999.90;;;19.50;99.90;;;;;;5112988;28;20836;-71
2023/05/14 08:18:59;;;;;;;1999.90;999.90;;;19.70;99.90;;;;;;5112645;28;20778;-72
2023/05/14 08:21:26;;;;;;;1999.90;999.90;;;19.90;99.90;;;;;;5112673;28;20401;-71
2023/05/14 08:23:53;;;;;;;1999.90;999.90;;;20.00;99.90;;;;;;5110680;28;20790;-72
2023/05/14 08:26:20;;;;;;;1999.90;999.90;;;20.10;99.90;;;;;;5112301;28;20404;-72
2023/05/14 08:28:47;;;;;;;1999.90;999.90;;;20.20;99.90;;;;;;5112350;28;20423;-73
2023/05/14 08:31:15;;;;;;;1999.90;999.90;;;20.30;99.90;;;;;;5112538;28;20404;-72
2023/05/14 08:33:41;;;;;;;1999.90;999.90;;;20.50;99.70;;;;;;5110731;28;20448;-72
2023/05/14 08:36:08;;;;;;;1999.90;999.90;;;20.10;99.20;;;;;;5112064;28;20424;-72
2023/05/14 08:38:35;;;;;;;1999.90;999.90;;;20.00;99.90;;;;;;5111434;28;20485;-72
2023/05/14 08:41:05;;;;;;;1999.90;999.90;;;19.90;99.90;;;;;;5111811;28;20413;-71
2023/05/14 08:43:43;;;;;;;1999.90;999.90;;;19.80;99.90;;;;;;5110599;28;20501;-72
2023/05/14 08:46:13;;;;;;;1999.90;999.90;;;19.50;99.90;;;;;;5111809;28;20829;-72
2023/05/14 08:48:43;;;;;;;1999.90;999.90;;;19.50;99.90;;;;;;5112140;28;20408;-71
2023/05/14 08:51:09;;;;;;;1999.90;999.90;;;19.50;99.90;;;;;;5110306;28;20516;-70
2023/05/14 08:53:39;;;;;;;1999.90;999.90;;;19.30;99.90;;;;;;5111785;28;20412;-72
2023/05/14 08:56:08;;;;;;;1999.90;999.90;;;19.30;99.90;;;;;;5112023;28;20528;-72
2023/05/14 08:58:34;;;;;;;1999.90;999.90;;;19.50;99.90;;;;;;5111816;28;20408;-72
2023/05/14 09:01:01;;;;;;;1999.90;999.90;;;19.40;99.90;;;;;;5108655;27;20424;-71
2023/05/14 09:03:28;;;;;;;1999.90;999.90;;;19.30;99.90;;;;;;5111652;28;20820;-71
2023/05/14 09:05:57;;;;;;;1999.90;999.90;;;19.60;99.90;;;;;;5111551;28;20662;-72
2023/05/14 09:08:24;;;;;;;1999.90;999.90;;;19.90;99.40;;;;;;5111545;28;20824;-72
2023/05/14 09:10:51;;;;;;;1999.90;999.90;;;20.20;99.30;;;;;;5110242;28;20424;-71
2023/05/14 09:13:17;;;;;;;1999.90;999.90;;;20.30;98.90;;;;;;5111756;28;20411;-72
2023/05/14 09:15:46;;;;;;;1999.90;999.90;;;20.50;97.90;;;;;;5111411;28;20420;-70
2023/05/14 09:18:12;;;;;;;1999.90;999.90;;;20.70;98.60;;;;;;5111510;28;20420;-69
2023/05/14 09:20:39;;;;;;;1999.90;999.90;;;20.70;98.20;;;;;;5109708;28;21084;-71
2023/05/14 09:23:07;;;;;;;1999.90;999.90;;;21.00;97.60;;;;;;5111217;28;20873;-72
2023/05/14 09:25:34;;;;;;;1999.90;999.90;;;20.70;98.60;;;;;;5111363;28;20461;-69
2023/05/14 09:28:06;;;;;;;1999.90;999.90;;;20.30;98.70;;;;;;5111260;28;20441;-71
2023/05/14 09:30:33;;;;;;;1999.90;999.90;;;20.40;98.60;;;;;;5109698;28;20431;-69
2023/05/14 09:33:00;;;;;;;1999.90;999.90;;;20.30;98.90;;;;;;5111131;28;20408;-72
2023/05/14 09:35:26;;;;;;;1999.90;999.90;;;20.20;99.60;;;;;;5110929;28;20878;-72
2023/05/14 09:37:55;;;;;;;1999.90;999.90;;;20.40;99.40;;;;;;5111400;28;20433;-70
2023/05/14 09:40:23;;;;;;;1999.90;999.90;;;20.00;98.40;;;;;;5108916;28;20438;-72
2023/05/14 09:42:50;;;;;;;1999.90;999.90;;;20.30;98.50;;;;;;5105551;28;20904;-71
2023/05/14 09:45:17;;;;;;;1999.90;999.90;;;20.40;98.40;;;;;;5110945;28;20400;-72
2023/05/14 09:47:44;;;;;;;1999.90;999.90;;;20.70;97.90;;;;;;5110964;28;20412;-72
2023/05/14 09:50:11;;;;;;;1999.90;999.90;;;20.50;97.60;;;;;;5109039;28;20517;-71
2023/05/14 09:52:38;;;;;;;1999.90;999.90;;;20.90;97.00;;;;;;5103772;28;20404;-72
2023/05/14 09:55:06;;;;;;;1999.90;999.90;;;21.00;96.50;;;;;;5110841;28;20481;-72
2023/05/14 09:57:35;;;;;;;1999.90;999.90;;;20.90;96.50;;;;;;5110856;28;20420;-72
2023/05/14 10:00:02;;;;;;;1999.90;999.90;;;20.50;96.80;;;;;;5110574;28;20416;-72
2023/05/14 10:02:36;;;;;;;1999.90;999.90;;;20.60;97.60;;;;;;5101555;28;21231;-72
2023/05/14 10:05:04;;;;;;;1999.90;999.90;;;20.20;98.00;;;;;;5110579;28;20953;-72
2023/05/14 10:07:36;;;;;;;1999.90;999.90;;;20.30;98.10;;;;;;5110857;28;20412;-73
2023/05/14 10:10:07;;;;;;;1999.90;999.90;;;20.30;98.70;;;;;;5110615;28;20932;-71
2023/05/14 10:12:38;;;;;;;1999.90;999.90;;;20.50;98.80;;;;;;5107402;28;20434;-70
2023/05/14 10:15:12;;;;;;;1999.90;999.90;;;20.40;99.20;;;;;;5110467;28;20415;-70
2023/05/14 10:17:42;;;;;;;1999.90;999.90;;;20.10;99.20;;;;;;5110480;28;20449;-69
2023/05/14 10:20:13;;;;;;;1999.90;999.90;;;20.30;99.30;;;;;;5110541;28;20795;-71
2023/05/14 10:22:39;;;;;;;1999.90;999.90;;;20.20;98.90;;;;;;5108924;28;20420;-73
2023/05/14 10:25:07;;;;;;;1999.90;999.90;;;20.40;98.90;;;;;;5110155;28;20824;-72
2023/05/14 10:27:36;;;;;;;1999.90;999.90;;;20.70;97.60;;;;;;5110540;28;20824;-71
2023/05/14 10:30:10;;;;;;;1999.90;999.90;;;20.80;98.10;;;;;;5110612;28;20416;-72
2023/05/14 10:32:38;;;;;;;1999.90;999.90;;;20.70;98.30;;;;;;5109123;28;20434;-72
2023/05/14 10:35:16;;;;;;;1999.90;999.90;;;20.60;98.80;;;;;;5110137;28;20902;-72
2023/05/14 10:37:45;;;;;;;1999.90;999.90;;;20.40;98.40;;;;;;5110347;28;20461;-71
2023/05/14 10:40:13;;;;;;;1999.90;999.90;;;20.40;97.70;;;;;;5110739;28;20825;-70
2023/05/14 10:42:42;;;;;;;1999.90;999.90;;;20.40;98.10;;;;;;5109020;28;20495;-72
2023/05/14 10:45:11;;;;;;;1999.90;999.90;;;20.30;98.80;;;;;;5110375;28;20530;-72
2023/05/14 10:47:39;;;;;;;1999.90;999.90;;;20.20;97.70;;;;;;5110561;28;20461;-71
2023/05/14 10:50:08;;;;;;;1999.90;999.90;;;19.70;97.90;;;;;;5110229;28;20451;-72
2023/05/14 10:52:35;;;;;;;1999.90;999.90;;;19.90;99.30;;;;;;5108911;28;20404;-72
2023/05/14 10:55:06;;;;;;;1999.90;999.90;;;19.80;98.60;;;;;;5110155;28;20488;-70
2023/05/14 10:57:36;;;;;;;1999.90;999.90;;;19.40;99.90;;;;;;5089811;28;20461;-71
2023/05/14 11:00:07;;;;;;;1999.90;999.90;;;19.70;99.90;;;;;;5089670;28;20888;-71
2023/05/14 11:02:37;;;;;;;1999.90;999.90;;;20.00;99.80;;;;;;5090372;28;20418;-72
2023/05/14 11:05:07;;;;;;;1999.90;999.90;;;20.40;97.80;;;;;;5106115;28;20500;-72
2023/05/14 11:07:35;;;;;;;1999.90;999.90;;;20.90;98.00;;;;;;5106120;28;20977;-72
2023/05/14 11:10:04;;;;;;;1999.90;999.90;;;21.10;97.00;;;;;;5114138;27;20412;-72
2023/05/14 11:12:31;;;;;;;1999.90;999.90;;;20.80;97.30;;;;;;5113336;27;20404;-72
2023/05/14 11:15:00;;;;;;;1999.90;999.90;;;20.80;97.90;;;;;;5109238;28;20413;-72
2023/05/14 11:17:30;;;;;;;1999.90;999.90;;;20.60;97.70;;;;;;5113634;28;20424;-72
2023/05/14 11:19:57;;;;;;;1999.90;999.90;;;20.90;97.30;;;;;;5113872;28;20408;-72
2023/05/14 11:22:24;;;;;;;1999.90;999.90;;;20.90;96.80;;;;;;5113616;28;20870;-72
2023/05/14 11:24:51;;;;;;;1999.90;999.90;;;21.20;96.00;;;;;;5111960;27;20428;-71
2023/05/14 11:27:18;;;;;;;1999.90;999.90;;;21.60;95.20;;;;;;5130007;22;20446;-68
2023/05/14 11:29:46;;;;;;;1999.90;999.90;;;22.60;94.40;;;;;;5088637;28;20426;-69
2023/05/14 11:32:14;;;;;;;1999.90;999.90;;;22.40;94.50;;;;;;5084432;28;20438;-68
2023/05/14 11:34:44;;;;;;;1999.90;999.90;;;23.00;94.40;;;;;;5092834;28;20414;-69
2023/05/14 11:37:12;;;;;;;1999.90;999.90;;;23.20;93.00;;;;;;5091660;28;20422;-68
2023/05/14 11:39:39;;;;;;;1999.90;999.90;;;23.70;92.60;;;;;;5091812;28;20518;-71
2023/05/14 11:42:13;;;;;;;1999.90;999.90;;;23.70;92.80;;;;;;5092828;28;20418;-71
2023/05/14 11:44:40;;;;;;;1999.90;999.90;;;23.70;92.30;;;;;;5092797;28;20414;-72
2023/05/14 11:47:07;;;;;;;1999.90;999.90;;;23.50;91.80;;;;;;5092073;28;20410;-71
2023/05/14 11:49:34;;;;;;;1999.90;999.90;;;23.80;91.70;;;;;;5092190;28;20410;-70
2023/05/14 11:52:04;;;;;;;1999.90;999.90;;;23.00;92.00;;;;;;5092218;28;20496;-68
2023/05/14 11:54:32;;;;;;;1999.90;999.90;;;22.90;91.30;;;;;;5092637;28;20402;-69
2023/05/14 11:57:02;;;;;;;1999.90;999.90;;;23.00;92.90;;;;;;5092313;28;20430;-69
2023/05/14 11:59:30;;;;;;;1999.90;999.90;;;22.90;91.10;;;;;;5090689;28;20429;-68
2023/05/14 12:01:57;;;;;;;1999.90;999.90;;;23.10;91.40;;;;;;5092294;28;20493;-68